Time;durP1;ratioP1;P1;durP2;ratioP2;P2;SDS_P1;SDS_P2;PMS_P1;PMS_P2;Temp;Humidity;BMP_temperature;BMP_pressure;BME280_temperature;BME280_humidity;BME280_pressure;Samples;Min_cycle;Max_cycle;Signal;HPM_P1;HPM_P2
2022/04/24 00:00:13;;;;;;;38.95;30.35;;;10.50;80.80;;;9.08;88.26;94107.22;4907016;28;20699;-62
2022/04/24 00:02:40;;;;;;;37.65;31.35;;;10.50;80.80;;;9.07;88.35;94104.81;4918197;28;20741;-62
2022/04/24 00:05:06;;;;;;;37.95;31.10;;;10.60;80.70;;;9.06;88.59;94093.53;4874551;28;20755;-63
2022/04/24 00:07:33;;;;;;;39.40;32.03;;;10.60;80.60;;;9.03;88.21;94078.25;4887210;28;20366;-63
2022/04/24 00:09:59;;;;;;;39.47;33.22;;;10.60;80.90;;;8.99;87.97;94077.09;4897779;28;20690;-62
2022/04/24 00:12:25;;;;;;;39.70;32.78;;;10.50;81.00;;;8.97;89.03;94075.75;4897245;28;20359;-63
2022/04/24 00:15:20;;;;;;;39.25;32.70;;;10.40;81.30;;;8.96;90.08;94067.06;4883948;28;20444;-62
2022/04/24 00:17:46;;;;;;;38.83;32.72;;;10.40;81.20;;;8.94;88.21;94074.38;4896387;28;20455;-62
2022/04/24 00:20:13;;;;;;;39.75;30.95;;;10.40;81.30;;;8.93;89.14;94067.53;4899892;28;20206;-64
2022/04/24 00:22:39;;;;;;;41.05;32.75;;;10.40;81.40;;;8.91;88.68;94059.09;4897099;28;20919;-63
2022/04/24 00:25:06;;;;;;;41.25;33.75;;;10.40;81.50;;;8.92;89.66;94050.22;4883520;28;20447;-63
2022/04/24 00:27:33;;;;;;;44.20;33.10;;;10.40;81.50;;;8.90;89.93;94047.03;4891131;28;20356;-63
2022/04/24 00:29:59;;;;;;;42.03;33.00;;;10.40;81.60;;;8.88;89.72;94038.59;4902852;28;20516;-63
2022/04/24 00:32:25;;;;;;;42.13;33.58;;;10.40;81.70;;;8.86;89.26;94051.94;4903602;28;20453;-63
2022/04/24 00:34:51;;;;;;;41.53;34.20;;;10.30;81.80;;;8.89;90.10;94055.91;4870476;28;20335;-63
2022/04/24 00:37:17;;;;;;;43.17;34.53;;;10.40;81.70;;;8.92;89.39;94060.69;4857117;28;20388;-63
2022/04/24 00:39:43;;;;;;;43.35;34.72;;;10.40;81.60;;;8.93;90.16;94046.56;4890642;28;20336;-63
2022/04/24 00:42:09;;;;;;;41.90;32.85;;;10.50;81.50;;;8.95;89.81;94049.75;4889175;28;20332;-63
2022/04/24 00:44:35;;;;;;;41.30;33.25;;;10.50;81.40;;;8.95;90.12;94043.72;4900803;28;20371;-63
2022/04/24 00:47:18;;;;;;;43.42;33.38;;;10.50;81.40;;;8.97;90.36;94047.69;4881734;28;20407;-63
2022/04/24 00:49:44;;;;;;;43.10;34.53;;;10.50;81.40;;;8.98;90.09;94038.81;4874714;28;20351;-63
2022/04/24 00:52:11;;;;;;;44.35;34.55;;;10.60;81.20;;;8.99;89.41;94036.97;4873633;28;20471;-63
2022/04/24 00:54:38;;;;;;;39.28;33.92;;;10.50;81.30;;;9.01;89.27;94037.53;4888478;28;20343;-63
2022/04/24 00:57:08;;;;;;;42.88;34.70;;;10.50;81.20;;;9.02;90.30;94047.81;4914241;28;20544;-63
2022/04/24 00:59:34;;;;;;;43.25;35.83;;;10.60;81.10;;;9.02;89.47;94033.91;4943567;28;20745;-63
2022/04/24 01:02:05;;;;;;;42.90;34.47;;;10.50;81.20;;;9.02;90.64;94031.28;4888914;28;20326;-63
2022/04/24 01:04:33;;;;;;;;;;;10.60;81.20;;;9.01;90.47;94027.06;4904403;28;20291;-63
2022/04/24 01:06:59;;;;;;;45.42;31.35;;;10.60;80.90;;;8.99;88.73;94035.16;4870136;28;20395;-63
2022/04/24 01:09:26;;;;;;;42.92;34.00;;;10.60;81.00;;;8.99;89.75;94029.09;4868298;28;20266;-63
2022/04/24 01:11:55;;;;;;;41.58;34.75;;;10.50;81.20;;;8.97;89.56;94031.97;4888166;28;20569;-63
2022/04/24 01:14:25;;;;;;;44.92;35.33;;;10.50;81.40;;;8.98;90.33;94022.28;4890689;28;20351;-63
2022/04/24 01:16:51;;;;;;;43.05;35.72;;;10.50;81.30;;;8.97;90.18;94011.00;4904337;28;20375;-63
2022/04/24 01:19:17;;;;;;;44.92;35.78;;;10.50;81.30;;;8.98;90.50;94009.97;4905113;28;20351;-63
2022/04/24 01:21:44;;;;;;;45.38;35.53;;;10.50;81.20;;;8.97;89.44;93995.25;4888945;28;20525;-63
2022/04/24 01:24:12;;;;;;;41.80;33.97;;;10.50;81.30;;;8.97;89.75;93997.88;4906141;28;20348;-62
2022/04/24 01:26:38;;;;;;;42.15;34.83;;;10.50;81.30;;;8.98;89.93;93996.84;4903940;28;20384;-62
2022/04/24 01:29:05;;;;;;;44.75;35.17;;;10.50;81.20;;;8.99;90.56;93987.97;4906782;28;20414;-63
2022/04/24 01:31:32;;;;;;;44.80;34.70;;;10.50;81.20;;;8.96;89.95;93983.19;4920015;28;20504;-63
2022/04/24 01:33:59;;;;;;;43.15;34.42;;;10.50;81.30;;;8.96;89.83;93993.66;4901988;28;20518;-62
2022/04/24 01:36:25;;;;;;;46.40;34.88;;;10.50;81.30;;;8.95;89.92;93992.06;4866069;28;20439;-62
2022/04/24 01:38:51;;;;;;;40.78;34.80;;;10.50;81.30;;;8.95;89.73;93997.31;4870192;28;20582;-62
2022/04/24 01:41:17;;;;;;;40.33;34.05;;;10.40;81.40;;;8.95;90.13;93986.84;4889033;28;20684;-63
2022/04/24 01:43:43;;;;;;;42.38;34.35;;;10.40;81.50;;;8.96;90.45;93977.13;4885034;28;20377;-63
2022/04/24 01:46:09;;;;;;;41.28;33.90;;;10.40;81.40;;;8.94;90.55;93979.19;4878680;28;20533;-63
2022/04/24 01:48:36;;;;;;;41.95;33.97;;;10.50;81.50;;;8.93;90.26;93988.88;4863375;28;20369;-63
2022/04/24 01:51:03;;;;;;;41.53;33.75;;;10.50;81.40;;;8.94;90.40;93985.25;4878480;28;20414;-63
2022/04/24 01:53:29;;;;;;;45.28;31.25;;;10.50;81.40;;;8.95;89.65;93981.59;4886811;28;20343;-64
2022/04/24 01:55:59;;;;;;;44.75;35.20;;;10.50;81.20;;;8.95;90.42;93980.78;4895287;28;20714;-63
2022/04/24 01:58:26;;;;;;;43.85;35.03;;;10.50;81.30;;;8.95;89.86;93972.94;4924305;28;20290;-63
2022/04/24 02:00:52;;;;;;;40.70;34.47;;;10.50;81.30;;;8.97;90.81;93978.72;4898856;28;20468;-63
2022/04/24 02:03:19;;;;;;;41.75;33.65;;;10.60;81.10;;;8.97;89.85;93981.34;4919015;28;20559;-63
2022/04/24 02:05:45;;;;;;;41.17;33.10;;;10.50;81.30;;;8.97;90.83;93984.78;4926733;28;20529;-63
2022/04/24 02:08:11;;;;;;;41.80;33.00;;;10.60;81.10;;;8.96;90.58;93985.81;4894798;28;20575;-63
2022/04/24 02:10:38;;;;;;;42.78;30.88;;;10.50;81.20;;;8.94;90.60;93987.84;4913385;28;20489;-64
2022/04/24 02:13:04;;;;;;;41.35;33.55;;;10.50;81.30;;;8.96;89.83;93988.41;4890978;28;20512;-63
2022/04/24 02:15:30;;;;;;;42.72;33.58;;;10.60;81.10;;;8.99;90.23;93992.41;4922559;28;20818;-63
2022/04/24 02:17:57;;;;;;;39.90;32.70;;;10.60;80.90;;;9.01;90.31;93985.09;4889473;28;20579;-63
2022/04/24 02:20:23;;;;;;;39.53;33.40;;;10.60;80.90;;;9.02;89.78;93989.31;4903659;28;20509;-63
2022/04/24 02:22:50;;;;;;;41.22;32.10;;;10.60;80.80;;;9.02;90.46;93990.13;4892546;28;20634;-63
2022/04/24 02:25:17;;;;;;;39.70;32.65;;;10.60;80.90;;;9.03;90.53;93996.16;4907328;28;20635;-62
2022/04/24 02:27:44;;;;;;;43.75;30.65;;;10.60;80.80;;;9.02;90.26;93990.13;4913406;28;20499;-63
2022/04/24 02:30:10;;;;;;;42.42;33.92;;;10.60;80.80;;;9.02;90.85;93992.75;4904167;28;20363;-62
2022/04/24 02:32:36;;;;;;;41.00;34.58;;;10.60;80.90;;;8.99;90.76;94001.06;4905042;28;20677;-62
2022/04/24 02:35:03;;;;;;;41.58;32.33;;;10.60;81.10;;;8.99;90.01;93993.19;4910205;28;20706;-63
2022/04/24 02:37:32;;;;;;;45.42;33.67;;;10.60;81.00;;;9.00;91.05;93997.41;4888591;28;20364;-62
2022/04/24 02:39:58;;;;;;;41.15;32.90;;;10.60;81.00;;;9.02;90.14;93997.97;4897893;28;20561;-62
2022/04/24 02:42:25;;;;;;;41.35;31.95;;;10.60;80.90;;;9.03;90.53;93998.78;4881262;28;20368;-63
2022/04/24 02:44:51;;;;;;;40.20;32.33;;;10.60;80.80;;;9.02;90.91;94010.28;4892413;28;20354;-63
2022/04/24 02:47:17;;;;;;;41.13;32.10;;;10.60;80.80;;;9.02;89.79;94005.84;4895450;28;20402;-63
2022/04/24 02:49:43;;;;;;;41.35;30.38;;;10.60;80.70;;;9.02;89.63;94003.22;4910288;28;20351;-63
2022/04/24 02:52:09;;;;;;;38.50;31.85;;;10.70;80.70;;;9.03;90.15;93996.94;4923915;28;20333;-62
2022/04/24 02:54:35;;;;;;;40.75;32.22;;;10.70;80.60;;;9.04;89.91;94016.91;4891262;28;20499;-63
2022/04/24 02:57:02;;;;;;;39.92;32.40;;;10.70;80.60;;;9.07;90.30;94011.22;4908625;28;20378;-62
2022/04/24 02:59:29;;;;;;;38.65;32.35;;;10.70;80.50;;;9.09;90.89;94003.91;4908734;28;20482;-63
2022/04/24 03:01:55;;;;;;;40.42;32.40;;;10.80;80.40;;;9.07;90.30;94007.81;4892471;28;20445;-63
2022/04/24 03:04:21;;;;;;;39.78;32.83;;;10.70;80.70;;;9.08;90.52;94004.94;4873147;28;20386;-63
2022/04/24 03:06:47;;;;;;;40.65;33.42;;;10.70;80.60;;;9.08;90.79;94014.63;4904757;28;20326;-62
2022/04/24 03:09:14;;;;;;;40.13;31.23;;;10.70;80.60;;;9.08;90.13;94018.06;4889561;28;20383;-63
2022/04/24 03:11:40;;;;;;;37.83;32.63;;;10.70;80.50;;;9.09;89.86;94009.16;4903989;28;20364;-64
2022/04/24 03:14:06;;;;;;;41.28;32.67;;;10.70;80.50;;;9.10;89.81;94015.22;4887132;28;20481;-62
2022/04/24 03:16:32;;;;;;;40.65;33.75;;;10.70;80.70;;;9.07;89.55;94005.97;4867091;28;20399;-63
2022/04/24 03:18:58;;;;;;;40.00;32.10;;;10.70;80.50;;;9.06;90.80;93995.72;4924939;28;20312;-63
2022/04/24 03:21:24;;;;;;;37.65;32.03;;;10.60;80.60;;;9.05;90.77;93992.31;4891168;28;20445;-63
2022/04/24 03:23:50;;;;;;;41.50;33.50;;;10.60;80.70;;;9.02;89.96;93982.25;4923971;28;20496;-62
2022/04/24 03:26:16;;;;;;;37.28;32.42;;;10.60;80.70;;;9.00;90.38;93979.06;4907473;28;20351;-63
2022/04/24 03:28:43;;;;;;;38.38;31.92;;;10.60;81.00;;;8.99;91.20;93977.47;4894909;28;20352;-63
2022/04/24 03:31:09;;;;;;;40.85;30.92;;;10.60;81.00;;;8.98;90.85;93990.81;4920452;28;20351;-63
2022/04/24 03:33:36;;;;;;;38.67;31.70;;;10.60;80.90;;;8.95;90.12;94005.19;4882094;28;20212;-62
2022/04/24 03:36:02;;;;;;;38.40;31.95;;;10.50;81.00;;;8.98;90.58;94059.78;4891824;28;20332;-65
2022/04/24 03:38:28;;;;;;;40.22;31.52;;;10.60;81.00;;;8.96;91.06;94077.56;4899205;28;20434;-63
2022/04/24 03:40:54;;;;;;;38.30;31.58;;;10.50;81.10;;;8.93;90.25;94113.94;4888684;28;20484;-63
2022/04/24 03:43:20;;;;;;;40.38;33.45;;;10.40;81.30;;;8.89;90.84;94111.78;4891241;28;20753;-63
2022/04/24 03:45:46;;;;;;;44.20;33.35;;;10.40;81.60;;;8.88;90.92;94097.06;4890045;28;20314;-64
2022/04/24 03:48:12;;;;;;;41.72;33.90;;;10.50;81.70;;;8.88;90.95;94112.00;4891068;28;20475;-63
2022/04/24 03:50:38;;;;;;;43.75;34.55;;;10.50;81.70;;;8.89;90.54;94103.09;4900714;28;20563;-63
2022/04/24 03:53:05;;;;;;;41.05;34.28;;;10.50;81.50;;;8.87;91.65;94099.91;4921678;28;20646;-63
2022/04/24 03:55:31;;;;;;;42.53;34.05;;;10.40;81.70;;;8.89;91.02;94092.63;4916464;28;20337;-63
2022/04/24 03:57:57;;;;;;;43.53;34.65;;;10.50;81.50;;;8.92;91.75;94097.41;4869560;28;20351;-63
2022/04/24 04:00:23;;;;;;;44.00;35.65;;;10.60;81.50;;;8.93;92.19;94083.28;4877427;28;20441;-63
2022/04/24 04:02:49;;;;;;;47.72;35.22;;;10.60;81.50;;;8.96;92.15;94092.50;4890378;28;20382;-62
2022/04/24 04:05:18;;;;;;;43.60;34.75;;;10.60;81.40;;;8.98;91.92;94095.69;4907592;28;20367;-63
2022/04/24 04:07:44;;;;;;;44.58;35.75;;;10.70;81.10;;;9.00;91.41;94099.66;4907595;28;20357;-63
2022/04/24 04:10:10;;;;;;;42.78;36.25;;;10.70;81.20;;;9.03;92.02;94103.66;4916968;28;20418;-63
2022/04/24 04:12:36;;;;;;;44.45;35.70;;;10.80;81.20;;;9.06;91.17;94096.16;4907124;28;20739;-63
2022/04/24 04:15:04;;;;;;;44.42;32.85;;;10.80;81.10;;;9.07;91.26;94084.66;4905677;28;20313;-62
2022/04/24 04:17:30;;;;;;;40.58;34.47;;;10.80;81.10;;;9.08;91.28;94085.44;4865016;28;20331;-63
2022/04/24 04:19:56;;;;;;;44.05;36.30;;;10.90;81.10;;;9.08;91.58;94081.00;4921772;28;20385;-63
2022/04/24 04:22:22;;;;;;;46.85;36.75;;;10.90;81.00;;;9.10;92.19;94088.63;4874117;28;20666;-63
2022/04/24 04:24:48;;;;;;;45.47;36.63;;;10.90;81.10;;;9.10;92.81;94084.19;4889920;28;20386;-63
2022/04/24 04:27:14;;;;;;;45.65;34.72;;;10.80;81.20;;;9.10;92.10;94093.88;4890726;28;20299;-63
2022/04/24 04:29:40;;;;;;;45.30;36.38;;;10.80;81.40;;;9.09;92.82;94097.53;4875690;28;20391;-62
2022/04/24 04:32:07;;;;;;;46.97;37.80;;;10.80;81.40;;;9.10;92.15;94110.41;4916959;28;20581;-63
2022/04/24 04:34:33;;;;;;;48.08;37.97;;;10.80;81.50;;;9.11;91.77;94112.00;4907299;28;20768;-63
2022/04/24 04:36:59;;;;;;;45.45;36.95;;;10.80;81.50;;;9.11;93.03;94122.50;4895725;28;20467;-63
2022/04/24 04:39:25;;;;;;;44.47;37.03;;;10.80;81.50;;;9.12;92.90;94129.34;4901656;28;20347;-63
2022/04/24 04:41:51;;;;;;;43.35;36.40;;;10.80;81.60;;;9.11;92.68;94133.00;4887402;28;20714;-62
2022/04/24 04:44:18;;;;;;;44.70;35.92;;;10.80;81.50;;;9.12;92.19;94145.06;4874489;28;20318;-63
2022/04/24 04:46:44;;;;;;;44.22;36.67;;;10.80;81.30;;;9.10;92.46;94141.88;4920894;28;20383;-63
2022/04/24 04:49:10;;;;;;;47.08;36.85;;;10.80;81.60;;;9.08;91.95;94136.06;4912669;28;20319;-63
2022/04/24 04:51:36;;;;;;;45.83;37.28;;;10.80;81.60;;;9.07;92.88;94147.59;4903273;28;20359;-63
2022/04/24 04:54:02;;;;;;;43.78;36.05;;;10.80;81.50;;;9.07;93.11;94155.44;4894036;28;20412;-66
2022/04/24 04:56:28;;;;;;;43.83;36.47;;;10.70;81.70;;;9.05;92.37;94154.88;4895934;28;20375;-67
2022/04/24 04:58:54;;;;;;;45.67;37.50;;;10.80;81.60;;;9.06;92.47;94166.97;4893461;28;20426;-69
2022/04/24 05:01:20;;;;;;;45.15;37.45;;;10.80;82.00;;;9.08;93.20;94172.78;4889589;28;20354;-69
2022/04/24 05:03:46;;;;;;;51.58;34.05;;;10.80;82.10;;;9.09;92.60;94171.75;4923923;28;20377;-67
2022/04/24 05:06:12;;;;;;;45.47;37.53;;;10.80;81.90;;;9.11;93.74;94179.38;4908832;28;20374;-67
2022/04/24 05:08:38;;;;;;;46.97;38.28;;;10.80;82.10;;;9.12;93.98;94191.47;4901675;28;20822;-67
2022/04/24 05:11:04;;;;;;;47.53;37.75;;;10.80;82.20;;;9.11;93.70;94195.94;4932974;28;20390;-67
2022/04/24 05:13:31;;;;;;;47.40;37.15;;;10.80;82.10;;;9.12;94.21;94204.59;4886700;28;20342;-70
2022/04/24 05:15:57;;;;;;;48.20;38.58;;;10.80;81.90;;;9.13;93.03;94209.59;4898162;28;20445;-68
2022/04/24 05:18:23;;;;;;;48.15;38.42;;;10.90;82.10;;;9.16;94.13;94219.66;4893422;28;20177;-67
2022/04/24 05:20:50;;;;;;;49.20;36.63;;;11.00;82.00;;;9.16;94.18;94224.88;4891106;28;20197;-69
2022/04/24 05:23:16;;;;;;;48.05;37.90;;;10.90;82.10;;;9.15;94.47;94223.28;4920726;28;20502;-70
2022/04/24 05:25:42;;;;;;;44.63;37.30;;;10.90;82.40;;;9.17;93.85;94223.88;4903443;28;20461;-70
2022/04/24 05:28:08;;;;;;;49.30;37.95;;;10.90;82.30;;;9.18;94.06;94233.34;4910632;28;20347;-66
2022/04/24 05:30:34;;;;;;;47.63;38.63;;;11.00;82.40;;;9.21;94.60;94238.13;4919455;28;20376;-64
2022/04/24 05:33:00;;;;;;;51.50;37.20;;;11.10;82.20;;;9.22;94.08;94249.41;4948122;28;20109;-64
2022/04/24 05:35:26;;;;;;;46.20;37.90;;;11.00;82.20;;;9.24;95.25;94249.19;4956181;28;20337;-65
2022/04/24 05:37:52;;;;;;;51.20;39.13;;;11.10;82.00;;;9.26;94.40;94261.03;4896678;28;20309;-65
2022/04/24 05:40:18;;;;;;;47.72;38.70;;;11.10;82.10;;;9.27;94.15;94251.34;4909245;28;20508;-66
2022/04/24 05:42:54;;;;;;;51.17;39.47;;;11.10;82.00;;;9.30;95.82;94245.69;4891899;28;20511;-65
2022/04/24 05:45:27;;;;;;;49.42;38.65;;;11.10;82.00;;;9.31;95.46;94248.06;4882795;28;20353;-65
2022/04/24 05:47:56;;;;;;;49.00;39.00;;;11.10;82.20;;;9.32;94.58;94238.38;4876719;28;20215;-64
2022/04/24 05:50:23;;;;;;;49.28;38.17;;;11.10;82.10;;;9.34;95.18;94231.09;4897724;28;20265;-64
2022/04/24 05:52:49;;;;;;;50.13;39.78;;;11.10;81.90;;;9.34;94.27;94241.56;4910042;28;20278;-64
2022/04/24 05:55:15;;;;;;;48.80;38.30;;;11.10;82.30;;;9.38;93.96;94238.25;4924923;28;20831;-66
2022/04/24 05:57:41;;;;;;;46.28;37.90;;;11.20;81.70;;;9.43;95.09;94255.94;4907770;28;20347;-65
2022/04/24 06:00:09;;;;;;;45.63;37.00;;;11.30;81.00;;;9.47;93.89;94268.38;4876953;28;20414;-64
2022/04/24 06:02:35;;;;;;;48.60;37.95;;;11.40;80.60;;;9.53;94.06;94250.94;4911142;28;20441;-65
2022/04/24 06:05:02;;;;;;;54.88;39.30;;;11.50;80.50;;;9.54;94.21;94252.56;4901110;28;20371;-68
2022/04/24 06:07:28;;;;;;;49.05;39.08;;;11.50;80.70;;;9.58;94.71;94243.19;4912562;28;20507;-68
2022/04/24 06:09:54;;;;;;;49.03;38.28;;;11.60;80.60;;;9.62;93.41;94241.69;4924801;28;20351;-67
2022/04/24 06:12:20;;;;;;;46.63;35.30;;;11.50;80.90;;;9.69;93.60;94241.56;4902499;28;20442;-70
2022/04/24 06:14:46;;;;;;;47.15;36.90;;;11.70;81.00;;;9.74;94.36;94239.88;4864372;28;20464;-69
2022/04/24 06:17:12;;;;;;;47.28;36.72;;;11.70;80.80;;;9.80;95.48;94233.72;4894938;28;20519;-68
2022/04/24 06:19:38;;;;;;;47.83;37.22;;;11.80;80.80;;;9.87;95.03;94241.47;4896977;28;20359;-69
2022/04/24 06:22:05;;;;;;;46.53;37.35;;;11.90;80.60;;;9.95;94.71;94242.94;4876298;28;20555;-67
2022/04/24 06:24:31;;;;;;;45.85;37.85;;;12.00;80.50;;;10.00;93.66;94245.69;4893842;28;20828;-71
2022/04/24 06:26:57;;;;;;;44.78;36.67;;;11.90;80.50;;;10.04;93.43;94252.06;4931396;28;20359;-70
2022/04/24 06:29:23;;;;;;;45.58;35.45;;;11.80;80.40;;;10.06;94.05;94250.81;4908444;28;20438;-68
2022/04/24 06:31:49;;;;;;;41.70;35.55;;;11.90;80.60;;;10.07;93.29;94262.13;4931446;28;20212;-69
2022/04/24 06:34:16;;;;;;;40.63;34.08;;;11.80;79.80;;;10.07;93.12;94270.78;4899271;28;20355;-67
2022/04/24 06:36:44;;;;;;;43.38;34.65;;;11.90;79.50;;;10.06;93.14;94266.56;4892626;28;20507;-67
2022/04/24 06:39:10;;;;;;;42.13;34.00;;;11.90;79.90;;;10.07;92.76;94283.13;4913056;28;20340;-66
2022/04/24 06:41:36;;;;;;;39.72;32.85;;;11.80;79.80;;;10.07;92.56;94283.13;4911299;28;20402;-66
2022/04/24 06:44:02;;;;;;;51.22;39.75;;;11.80;79.60;;;10.06;92.96;94281.53;4892397;28;20685;-67
2022/04/24 06:46:29;;;;;;;52.08;41.83;;;11.80;80.40;;;10.07;91.90;94288.38;4881695;28;20362;-67
2022/04/24 06:48:55;;;;;;;40.17;34.85;;;11.80;80.80;;;10.10;92.56;94287.91;4909207;28;20335;-67
2022/04/24 06:51:30;;;;;;;38.90;31.40;;;11.90;80.50;;;10.12;93.52;94280.59;4911934;28;20250;-67
2022/04/24 06:53:56;;;;;;;36.42;29.70;;;11.90;80.10;;;10.13;91.81;94282.19;4908012;28;20544;-61
2022/04/24 06:56:22;;;;;;;36.58;30.02;;;11.90;79.90;;;10.13;91.39;94292.72;4907738;28;20323;-65
2022/04/24 06:58:48;;;;;;;38.85;32.30;;;11.90;79.70;;;10.14;93.06;94289.84;4883273;28;20607;-66
2022/04/24 07:01:14;;;;;;;41.10;32.85;;;12.00;79.80;;;10.17;92.82;94293.03;4920015;28;20318;-66
2022/04/24 07:03:41;;;;;;;36.88;31.88;;;12.00;79.90;;;10.19;91.86;94297.06;4890146;28;20274;-67
2022/04/24 07:06:07;;;;;;;43.97;34.95;;;12.10;79.20;;;10.21;91.65;94294.22;4902338;28;20587;-67
2022/04/24 07:08:34;;;;;;;45.60;40.45;;;12.10;79.00;;;10.25;90.81;94298.78;4884369;28;20556;-68
2022/04/24 07:11:00;;;;;;;38.47;31.30;;;12.20;78.90;;;10.32;90.95;94299.47;4880524;28;20366;-68
2022/04/24 07:13:26;;;;;;;37.03;32.17;;;12.30;78.20;;;10.40;91.56;94301.72;4930979;28;20346;-66
2022/04/24 07:15:52;;;;;;;45.25;36.00;;;12.60;77.70;;;10.50;90.64;94309.03;4938735;28;20576;-66
2022/04/24 07:18:18;;;;;;;40.60;32.78;;;12.60;77.60;;;10.62;90.95;94306.34;4935224;28;20295;-65
2022/04/24 07:20:44;;;;;;;38.45;31.33;;;13.00;77.50;;;10.74;91.00;94312.41;4949697;28;20313;-64
2022/04/24 07:23:11;;;;;;;35.35;29.95;;;13.10;76.50;;;10.88;90.76;94308.47;4928682;28;20254;-66
2022/04/24 07:25:43;;;;;;;34.72;29.80;;;13.40;76.40;;;11.05;90.99;94309.31;4892823;28;20306;-66
2022/04/24 07:28:19;;;;;;;33.80;29.25;;;13.60;75.70;;;11.23;89.55;94312.78;4906003;28;20321;-65
2022/04/24 07:30:45;;;;;;;40.25;33.47;;;13.60;73.90;;;11.30;90.06;94316.84;4882534;28;20299;-66
2022/04/24 07:33:12;;;;;;;46.53;40.25;;;13.50;75.40;;;11.41;88.78;94315.22;4899630;28;20344;-65
2022/04/24 07:35:39;;;;;;;29.55;25.55;;;13.60;74.90;;;11.51;87.86;94310.09;4922102;28;20569;-66
2022/04/24 07:38:05;;;;;;;31.83;27.83;;;13.60;73.80;;;11.58;87.05;94313.41;4894866;28;20442;-67
2022/04/24 07:40:35;;;;;;;32.28;28.30;;;13.70;73.70;;;11.69;87.48;94316.19;4907054;28;20665;-65
2022/04/24 07:43:06;;;;;;;30.00;25.55;;;13.90;73.70;;;11.81;85.72;94322.22;4913457;28;20340;-65
2022/04/24 07:45:48;;;;;;;28.08;25.08;;;14.10;72.30;;;11.92;85.75;94329.22;4876870;28;20195;-66
2022/04/24 07:48:16;;;;;;;28.83;23.90;;;14.20;72.70;;;11.98;85.40;94328.25;4907150;28;20369;-67
2022/04/24 07:51:00;;;;;;;27.23;22.98;;;14.20;72.00;;;12.06;82.67;94327.06;4899483;28;20476;-66
2022/04/24 07:53:26;;;;;;;25.95;23.05;;;14.20;71.10;;;12.10;83.91;94334.25;4926759;28;20430;-67
2022/04/24 07:55:52;;;;;;;25.92;22.40;;;14.30;71.10;;;12.14;83.10;94330.06;4926457;28;20327;-67
2022/04/24 07:58:19;;;;;;;26.10;22.45;;;14.10;70.70;;;12.17;82.84;94340.13;4931604;28;20580;-65
2022/04/24 08:00:47;;;;;;;24.65;22.05;;;14.30;71.10;;;12.22;83.17;94347.31;4899671;28;20757;-65
2022/04/24 08:03:14;;;;;;;27.08;22.95;;;14.30;71.10;;;12.21;82.60;94351.78;4902318;28;20358;-63
2022/04/24 08:05:45;;;;;;;25.30;22.48;;;14.20;70.70;;;12.17;81.62;94350.69;4910252;28;20354;-66
2022/04/24 08:08:17;;;;;;;25.02;22.33;;;14.00;71.20;;;12.10;81.88;94357.97;4895213;28;20302;-66
2022/04/24 08:10:48;;;;;;;27.25;24.20;;;14.00;71.10;;;12.05;81.46;94367.63;4878037;28;20413;-66
2022/04/24 08:13:14;;;;;;;24.40;20.40;;;13.80;71.60;;;12.01;81.95;94362.06;4874785;28;20468;-66
2022/04/24 08:15:40;;;;;;;21.42;19.13;;;13.80;72.20;;;11.96;81.32;94370.66;4870339;28;20318;-67
2022/04/24 08:18:07;;;;;;;21.88;19.55;;;13.60;71.70;;;11.89;80.70;94372.66;4885871;28;20489;-67
2022/04/24 08:20:34;;;;;;;17.60;15.75;;;13.50;71.50;;;11.80;80.40;94376.72;4909107;28;20401;-66
2022/04/24 08:23:02;;;;;;;18.75;15.82;;;13.40;71.20;;;11.72;80.70;94384.16;4898719;28;20481;-66
2022/04/24 08:25:34;;;;;;;17.80;15.90;;;13.30;72.10;;;11.61;80.26;94389.28;4911940;28;20310;-64
2022/04/24 08:28:02;;;;;;;20.92;16.90;;;13.20;72.40;;;11.54;80.79;94408.88;4909817;28;20254;-65
2022/04/24 08:30:28;;;;;;;20.48;16.85;;;13.20;72.30;;;11.48;80.59;94408.00;4903521;28;20768;-66
2022/04/24 08:32:54;;;;;;;17.85;15.95;;;13.10;72.60;;;11.40;81.03;94411.00;4904322;28;20262;-65
2022/04/24 08:35:27;;;;;;;17.40;15.50;;;13.00;72.60;;;11.34;80.67;94415.38;4898401;28;20639;-66
2022/04/24 08:37:53;;;;;;;17.88;15.57;;;13.00;72.90;;;11.33;81.78;94419.06;4905353;28;20503;-65
2022/04/24 08:40:23;;;;;;;18.73;16.42;;;13.10;73.00;;;11.33;81.17;94418.25;4892929;28;20392;-65
2022/04/24 08:42:54;;;;;;;18.00;16.10;;;13.10;73.00;;;11.30;81.65;94423.97;4895764;28;20210;-64
2022/04/24 08:45:25;;;;;;;16.63;13.70;;;13.10;73.00;;;11.32;81.26;94427.19;4893650;28;20428;-65
2022/04/24 08:47:51;;;;;;;16.17;13.77;;;13.20;73.10;;;11.34;82.33;94425.13;4889815;28;20417;-64
2022/04/24 08:50:19;;;;;;;16.48;14.40;;;13.20;72.90;;;11.35;81.45;94432.78;4907127;28;20496;-62
2022/04/24 08:52:45;;;;;;;15.27;13.55;;;13.20;72.70;;;11.37;81.63;94431.75;4913449;28;20560;-62
2022/04/24 08:55:12;;;;;;;14.20;12.73;;;13.30;72.80;;;11.37;81.46;94432.53;4910121;28;20210;-64
2022/04/24 08:57:38;;;;;;;13.93;12.43;;;13.10;72.30;;;11.38;80.85;94434.13;4871244;28;20374;-69
2022/04/24 09:00:07;;;;;;;14.38;12.35;;;13.20;72.10;;;11.40;80.67;94439.16;4928702;28;20418;-70
2022/04/24 09:02:34;;;;;;;11.80;10.57;;;13.20;71.60;;;11.38;80.84;94447.28;4912346;28;20276;-70
2022/04/24 09:05:00;;;;;;;11.95;10.07;;;13.10;71.30;;;11.41;80.47;94453.94;4881723;28;20489;-70
2022/04/24 09:07:31;;;;;;;10.48;8.90;;;13.10;72.10;;;11.43;79.78;94452.66;4890271;28;20350;-70
2022/04/24 09:09:58;;;;;;;9.23;8.15;;;13.30;71.00;;;11.52;79.59;94443.34;4872915;28;20596;-70
2022/04/24 09:12:26;;;;;;;12.05;8.25;;;13.80;69.90;;;11.77;79.86;94450.94;4870675;28;20450;-68
2022/04/24 09:14:57;;;;;;;12.02;10.70;;;14.30;67.30;;;12.04;78.82;94440.63;4887825;28;20513;-72
2022/04/24 09:17:28;;;;;;;11.13;8.68;;;14.90;66.50;;;12.29;78.48;94436.78;4924031;28;20567;-69
2022/04/24 09:19:55;;;;;;;9.73;8.52;;;15.10;65.00;;;12.57;77.55;94439.31;4924776;28;20459;-68
2022/04/24 09:22:25;;;;;;;9.45;8.40;;;15.60;62.70;;;12.88;77.23;94436.06;4899388;28;20363;-69
2022/04/24 09:24:55;;;;;;;9.23;8.32;;;16.00;61.70;;;13.18;76.93;94435.72;4890217;28;20287;-71
2022/04/24 09:27:30;;;;;;;9.93;8.13;;;16.40;62.00;;;13.52;73.95;94440.03;4897717;28;20343;-71
2022/04/24 09:29:57;;;;;;;9.93;8.65;;;16.90;60.70;;;13.91;75.18;94441.53;4881108;28;20370;-69
2022/04/24 09:32:25;;;;;;;12.85;10.70;;;17.40;58.50;;;14.17;72.99;94445.19;4895936;28;20313;-70
2022/04/24 09:34:52;;;;;;;10.13;8.88;;;17.30;56.10;;;14.39;72.73;94448.53;4920388;28;20464;-72
2022/04/24 09:37:18;;;;;;;9.05;7.30;;;17.50;56.20;;;14.55;72.10;94438.91;4904779;28;20310;-67
2022/04/24 09:39:44;;;;;;;11.25;7.53;;;17.50;56.70;;;14.61;69.83;94443.19;4878476;28;20307;-68
2022/04/24 09:42:15;;;;;;;9.63;8.30;;;17.20;56.80;;;14.67;67.98;94444.00;4901077;28;20556;-68
2022/04/24 09:44:56;;;;;;;14.65;10.75;;;17.20;56.30;;;14.79;65.07;94443.84;4919502;28;20304;-65
2022/04/24 09:47:25;;;;;;;;;;;17.40;55.00;;;14.75;64.43;94442.75;4891527;28;20314;-67
2022/04/24 09:49:52;;;;;;;8.00;7.20;;;17.20;54.60;;;14.77;68.58;94445.94;4925507;28;20429;-66
2022/04/24 09:52:25;;;;;;;8.90;7.05;;;17.10;54.10;;;14.73;65.10;94448.31;4890480;28;20376;-66
2022/04/24 09:54:56;;;;;;;11.65;10.20;;;17.10;55.10;;;14.77;65.00;94451.22;4885792;28;20173;-67
2022/04/24 09:57:27;;;;;;;12.43;7.88;;;17.20;55.60;;;14.78;66.59;94458.91;4891787;28;20041;-67
2022/04/24 09:59:53;;;;;;;7.95;6.95;;;17.20;55.30;;;14.82;66.23;94460.00;4889107;28;20395;-68
2022/04/24 10:02:20;;;;;;;7.25;6.55;;;17.20;56.00;;;14.87;66.55;94462.66;4910273;28;20672;-64
2022/04/24 10:04:46;;;;;;;8.60;6.22;;;17.30;55.80;;;14.96;66.54;94465.66;4912766;28;20253;-65
2022/04/24 10:07:15;;;;;;;7.65;6.80;;;17.60;55.90;;;15.01;66.71;94457.72;4905857;28;20429;-65
2022/04/24 10:09:43;;;;;;;7.10;6.07;;;17.60;54.30;;;15.01;64.30;94452.44;4906253;28;20474;-69
2022/04/24 10:12:15;;;;;;;8.32;7.20;;;17.40;53.80;;;15.05;65.78;94448.22;4923711;28;20423;-69